createdAt,value
2023-04-24T00:00:39.204Z,0.00
2023-04-24T00:01:39.159Z,0.00
2023-04-24T00:02:39.478Z,0.00
2023-04-24T00:03:39.191Z,0.00
2023-04-24T00:04:39.149Z,0.00
2023-04-24T00:05:39.080Z,0.00
2023-04-24T00:06:39.115Z,0.00
2023-04-24T00:07:39.035Z,0.00
2023-04-24T00:08:39.076Z,0.00
2023-04-24T00:09:39.982Z,0.00
2023-04-24T00:10:39.068Z,0.00
2023-04-24T00:11:39.050Z,0.00
2023-04-24T00:12:39.024Z,0.00
2023-04-24T00:13:39.124Z,0.00
2023-04-24T00:14:39.180Z,0.00
2023-04-24T00:15:38.991Z,0.00
2023-04-24T00:16:39.043Z,0.00
2023-04-24T00:17:38.991Z,0.00
2023-04-24T00:18:39.067Z,0.00
2023-04-24T00:19:38.911Z,0.00
2023-04-24T00:20:38.932Z,0.00
2023-04-24T00:21:38.927Z,0.00
2023-04-24T00:22:38.973Z,0.00
2023-04-24T00:23:39.026Z,0.00
2023-04-24T00:24:38.884Z,0.00
2023-04-24T00:25:38.859Z,0.00
2023-04-24T00:26:38.858Z,0.00
2023-04-24T00:27:38.852Z,0.00
2023-04-24T00:28:38.867Z,0.00
2023-04-24T00:29:38.827Z,0.00
2023-04-24T00:30:38.839Z,0.00
2023-04-24T00:31:38.893Z,0.00
2023-04-24T00:32:38.829Z,0.00
2023-04-24T00:33:38.752Z,0.00
2023-04-24T00:34:38.763Z,0.00
2023-04-24T00:35:38.766Z,0.00
2023-04-24T00:36:38.772Z,0.00
2023-04-24T00:37:38.724Z,0.00
2023-04-24T00:38:38.785Z,0.00
2023-04-24T00:39:38.712Z,0.00
2023-04-24T00:40:38.715Z,0.00
2023-04-24T00:41:38.733Z,0.00
2023-04-24T00:42:38.704Z,0.00
2023-04-24T00:43:38.744Z,0.00
2023-04-24T00:44:38.683Z,0.00
2023-04-24T00:45:38.662Z,0.00
2023-04-24T00:46:38.732Z,0.00
2023-04-24T00:47:38.657Z,0.00
2023-04-24T00:48:38.602Z,0.00
2023-04-24T00:49:38.583Z,0.00
2023-04-24T00:50:38.653Z,0.00
2023-04-24T00:51:38.550Z,0.00
2023-04-24T00:52:38.597Z,0.00
2023-04-24T00:53:38.540Z,0.00
2023-04-24T00:54:38.595Z,0.00
2023-04-24T00:55:38.520Z,0.00
2023-04-24T00:56:38.580Z,0.00
2023-04-24T00:57:38.528Z,0.00
2023-04-24T00:58:38.515Z,0.00
2023-04-24T00:59:38.530Z,0.00
2023-04-24T01:00:38.540Z,0.00
2023-04-24T01:01:38.505Z,0.00
2023-04-24T01:02:38.737Z,0.00
2023-04-24T01:03:38.713Z,0.00
2023-04-24T01:04:38.631Z,0.00
2023-04-24T01:05:38.439Z,0.00
2023-04-24T01:06:38.394Z,0.00
2023-04-24T01:07:38.430Z,0.00
2023-04-24T01:08:38.382Z,0.00
2023-04-24T01:09:38.349Z,0.00
2023-04-24T01:10:39.135Z,0.00
2023-04-24T01:11:38.383Z,0.00
2023-04-24T01:12:38.332Z,0.00
2023-04-24T01:13:38.315Z,0.00
2023-04-24T01:14:38.395Z,0.00
2023-04-24T01:15:38.323Z,0.00
2023-04-24T01:16:38.301Z,0.00
2023-04-24T01:17:38.434Z,0.00
2023-04-24T01:18:38.282Z,0.00
2023-04-24T01:19:38.328Z,0.00
2023-04-24T01:20:38.271Z,0.00
2023-04-24T01:21:38.345Z,0.00
2023-04-24T01:22:38.232Z,0.00
2023-04-24T01:23:38.192Z,0.00
2023-04-24T01:24:38.208Z,0.00
2023-04-24T01:25:38.199Z,0.00
2023-04-24T01:26:38.182Z,0.00
2023-04-24T01:27:38.242Z,0.00
2023-04-24T01:28:38.178Z,0.00
2023-04-24T01:29:38.210Z,0.00
2023-04-24T01:30:38.142Z,0.00
2023-04-24T01:31:38.949Z,0.00
2023-04-24T01:32:38.273Z,0.00
2023-04-24T01:33:38.106Z,0.00
2023-04-24T01:34:38.118Z,0.00
2023-04-24T01:35:38.059Z,0.00
2023-04-24T01:36:38.056Z,0.00
2023-04-24T01:37:38.033Z,0.00
2023-04-24T01:38:38.044Z,0.00
2023-04-24T01:39:38.103Z,0.00
2023-04-24T01:40:38.023Z,0.00
2023-04-24T01:41:37.974Z,0.00
2023-04-24T01:42:37.984Z,0.00
2023-04-24T01:43:37.975Z,0.00
2023-04-24T01:44:37.980Z,0.00
2023-04-24T01:45:37.936Z,0.00
2023-04-24T01:46:38.113Z,0.00
2023-04-24T01:47:37.946Z,0.00
2023-04-24T01:48:37.975Z,0.00
2023-04-24T01:49:37.934Z,0.00
2023-04-24T01:50:37.891Z,0.00
2023-04-24T01:51:37.928Z,0.00
2023-04-24T01:52:37.878Z,0.00
2023-04-24T01:53:37.887Z,0.00
2023-04-24T01:54:37.875Z,0.00
2023-04-24T01:55:37.818Z,0.00
2023-04-24T01:56:37.836Z,0.00
2023-04-24T01:57:37.801Z,0.00
2023-04-24T01:58:37.812Z,0.00
2023-04-24T01:59:37.799Z,0.00
2023-04-24T02:00:37.835Z,0.00
2023-04-24T02:01:37.781Z,0.00
2023-04-24T02:02:37.872Z,0.00
2023-04-24T02:03:37.863Z,0.00
2023-04-24T02:04:37.745Z,0.00
2023-04-24T02:05:37.728Z,0.00
2023-04-24T02:06:37.905Z,0.00
2023-04-24T02:07:37.694Z,0.00
2023-04-24T02:08:37.735Z,0.00
2023-04-24T02:09:37.686Z,0.00
2023-04-24T02:10:37.688Z,0.00
2023-04-24T02:11:37.778Z,0.00
2023-04-24T02:12:37.843Z,0.00
2023-04-24T02:13:37.738Z,0.00
2023-04-24T02:14:37.639Z,0.00
2023-04-24T02:15:37.618Z,0.00
2023-04-24T02:16:37.641Z,0.00
2023-04-24T02:17:37.616Z,0.00
2023-04-24T02:18:37.615Z,0.00
2023-04-24T02:19:37.547Z,0.00
2023-04-24T02:20:37.625Z,0.00
2023-04-24T02:21:37.554Z,0.00
2023-04-24T02:22:37.617Z,0.00
2023-04-24T02:23:37.535Z,0.00
2023-04-24T02:24:37.562Z,0.00
2023-04-24T02:25:37.471Z,0.00
2023-04-24T02:26:37.529Z,0.00
2023-04-24T02:27:37.483Z,0.00
2023-04-24T02:28:37.501Z,0.00
2023-04-24T02:29:37.446Z,0.00
2023-04-24T02:30:37.536Z,0.00
2023-04-24T02:31:37.458Z,0.00
2023-04-24T02:32:37.411Z,0.00
2023-04-24T02:33:37.416Z,0.00
2023-04-24T02:34:37.422Z,0.00
2023-04-24T02:35:37.423Z,0.00
2023-04-24T02:36:37.401Z,0.00
2023-04-24T02:37:37.436Z,0.00
2023-04-24T02:38:37.363Z,0.00
2023-04-24T02:39:37.376Z,0.00
2023-04-24T02:40:37.338Z,0.00
2023-04-24T02:41:37.368Z,0.00
2023-04-24T02:42:37.331Z,0.00
2023-04-24T02:43:37.270Z,0.00
2023-04-24T02:44:37.395Z,0.00
2023-04-24T02:45:37.300Z,0.00
2023-04-24T02:46:37.293Z,0.00
2023-04-24T02:47:37.272Z,0.00
2023-04-24T02:48:37.347Z,0.00
2023-04-24T02:49:37.224Z,0.00
2023-04-24T02:50:37.279Z,0.00
2023-04-24T02:51:37.243Z,0.00
2023-04-24T02:52:37.219Z,0.00
2023-04-24T02:53:37.230Z,0.00
2023-04-24T02:54:37.138Z,0.00
2023-04-24T02:55:37.291Z,0.00
2023-04-24T02:56:37.126Z,0.00
2023-04-24T02:57:37.182Z,0.00
2023-04-24T02:58:37.097Z,0.00
2023-04-24T02:59:37.146Z,0.00
2023-04-24T03:00:37.087Z,0.00
2023-04-24T03:01:37.158Z,0.00
2023-04-24T03:02:37.177Z,0.00
2023-04-24T03:03:37.292Z,0.00
2023-04-24T03:04:37.209Z,0.00
2023-04-24T03:05:37.058Z,0.00
2023-04-24T03:06:37.130Z,0.00
2023-04-24T03:07:37.048Z,0.00
2023-04-24T03:08:37.010Z,0.00
2023-04-24T03:09:37.023Z,0.00
2023-04-24T03:10:37.037Z,0.00
2023-04-24T03:11:37.000Z,0.00
2023-04-24T03:12:36.992Z,0.00
2023-04-24T03:13:37.112Z,0.00
2023-04-24T03:14:36.907Z,0.00
2023-04-24T03:15:36.950Z,0.00
2023-04-24T03:16:36.943Z,0.00
2023-04-24T03:17:37.088Z,0.00
2023-04-24T03:18:36.884Z,0.00
2023-04-24T03:19:36.888Z,0.00
2023-04-24T03:20:36.891Z,0.00
2023-04-24T03:21:36.939Z,0.00
2023-04-24T03:22:36.832Z,0.00
2023-04-24T03:23:36.845Z,0.00
2023-04-24T03:24:36.823Z,0.00
2023-04-24T03:25:36.846Z,0.00
2023-04-24T03:26:36.777Z,0.00
2023-04-24T03:27:36.817Z,0.00
2023-04-24T03:28:36.784Z,0.00
2023-04-24T03:29:36.788Z,0.00
2023-04-24T03:30:36.849Z,0.00
2023-04-24T03:31:36.771Z,0.00
2023-04-24T03:32:36.753Z,0.00
2023-04-24T03:33:36.845Z,0.00
2023-04-24T03:34:37.063Z,0.00
2023-04-24T03:35:36.860Z,0.00
2023-04-24T03:36:36.690Z,0.00
2023-04-24T03:37:36.782Z,0.00
2023-04-24T03:38:36.657Z,0.00
2023-04-24T03:39:37.624Z,0.00
2023-04-24T03:40:36.619Z,0.00
2023-04-24T03:41:37.311Z,0.00
2023-04-24T03:42:39.120Z,0.00
2023-04-24T03:43:36.648Z,0.00
2023-04-24T03:44:36.650Z,0.00
2023-04-24T03:45:36.610Z,0.00
2023-04-24T03:46:36.754Z,0.00
2023-04-24T03:47:36.609Z,0.00
2023-04-24T03:48:36.548Z,0.00
2023-04-24T03:49:36.546Z,0.00
2023-04-24T03:50:36.570Z,4.00
2023-04-24T03:51:36.535Z,4.00
2023-04-24T03:52:36.499Z,4.00
2023-04-24T03:53:36.498Z,4.00
2023-04-24T03:54:36.471Z,0.00
2023-04-24T03:55:36.509Z,4.00
2023-04-24T03:56:36.487Z,4.00
2023-04-24T03:57:36.487Z,4.00
2023-04-24T03:58:36.442Z,8.00
2023-04-24T03:59:36.460Z,4.00
2023-04-24T04:00:36.493Z,8.00
2023-04-24T04:01:36.422Z,8.00
2023-04-24T04:02:36.557Z,12.00
2023-04-24T04:03:36.622Z,12.00
2023-04-24T04:04:36.565Z,12.00
2023-04-24T04:05:36.379Z,12.00
2023-04-24T04:06:36.341Z,16.00
2023-04-24T04:07:36.354Z,20.00
2023-04-24T04:08:36.384Z,20.00
2023-04-24T04:09:36.334Z,24.00
2023-04-24T04:10:36.302Z,36.00
2023-04-24T04:11:36.302Z,40.00
2023-04-24T04:12:36.320Z,40.00
2023-04-24T04:13:36.314Z,44.00
2023-04-24T04:14:36.280Z,48.00
2023-04-24T04:15:36.450Z,60.00
2023-04-24T04:16:36.246Z,68.00
2023-04-24T04:17:36.277Z,76.00
2023-04-24T04:18:36.180Z,84.00
2023-04-24T04:19:36.275Z,96.00
2023-04-24T04:20:36.224Z,100.00
2023-04-24T04:21:36.192Z,112.00
2023-04-24T04:22:36.141Z,120.00
2023-04-24T04:23:36.239Z,132.00
2023-04-24T04:24:36.158Z,140.00
2023-04-24T04:25:36.202Z,156.00
2023-04-24T04:26:36.102Z,164.00
2023-04-24T04:27:36.126Z,176.00
2023-04-24T04:28:36.145Z,188.00
2023-04-24T04:29:36.102Z,204.00
2023-04-24T04:30:36.078Z,220.00
2023-04-24T04:31:36.188Z,236.00
2023-04-24T04:32:36.078Z,248.00
2023-04-24T04:33:36.048Z,280.00
2023-04-24T04:34:36.078Z,272.00
2023-04-24T04:35:36.074Z,292.00
2023-04-24T04:36:36.041Z,292.00
2023-04-24T04:37:36.031Z,280.00
2023-04-24T04:38:35.987Z,284.00
2023-04-24T04:39:36.017Z,320.00
2023-04-24T04:40:35.959Z,348.00
2023-04-24T04:41:35.993Z,368.00
2023-04-24T04:42:35.932Z,388.00
2023-04-24T04:43:36.080Z,396.00
2023-04-24T04:44:35.924Z,444.00
2023-04-24T04:45:35.923Z,472.00
2023-04-24T04:46:35.918Z,472.00
2023-04-24T04:47:35.954Z,492.00
2023-04-24T04:48:35.920Z,508.00
2023-04-24T04:49:35.935Z,516.00
2023-04-24T04:50:35.835Z,520.00
2023-04-24T04:51:35.849Z,536.00
2023-04-24T04:52:35.832Z,552.00
2023-04-24T04:53:35.842Z,568.00
2023-04-24T04:54:35.769Z,580.00
2023-04-24T04:55:35.838Z,600.00
2023-04-24T04:56:36.054Z,616.00
2023-04-24T04:57:35.767Z,636.00
2023-04-24T04:58:35.736Z,708.00
2023-04-24T04:59:35.850Z,936.00
2023-04-24T05:00:36.189Z,804.00
2023-04-24T05:01:35.785Z,744.00
2023-04-24T05:02:35.879Z,964.00
2023-04-24T05:03:35.904Z,604.00
2023-04-24T05:04:35.930Z,696.00
2023-04-24T05:05:35.671Z,864.00
2023-04-24T05:06:35.723Z,916.00
2023-04-24T05:07:35.669Z,872.00
2023-04-24T05:08:35.639Z,860.00
2023-04-24T05:09:35.636Z,920.00
2023-04-24T05:10:35.675Z,964.00
2023-04-24T05:11:35.625Z,1060.00
2023-04-24T05:12:35.596Z,1060.00
2023-04-24T05:13:39.865Z,1080.00
2023-04-24T05:14:36.616Z,884.00
2023-04-24T05:15:35.773Z,892.00
2023-04-24T05:16:36.566Z,840.00
2023-04-24T05:17:35.705Z,796.00
2023-04-24T05:18:35.535Z,916.00
2023-04-24T05:19:35.619Z,772.00
2023-04-24T05:20:35.767Z,776.00
2023-04-24T05:21:35.622Z,824.00
2023-04-24T05:22:35.471Z,976.00
2023-04-24T05:23:35.494Z,1016.00
2023-04-24T05:24:35.583Z,1004.00
2023-04-24T05:25:35.483Z,1256.00
2023-04-24T05:26:35.415Z,1244.00
2023-04-24T05:27:35.433Z,1316.00
2023-04-24T05:28:35.470Z,1316.00
2023-04-24T05:29:35.444Z,1380.00
2023-04-24T05:30:35.389Z,1412.00
2023-04-24T05:31:35.435Z,1500.00
2023-04-24T05:32:35.378Z,1552.00
2023-04-24T05:33:35.392Z,1780.00
2023-04-24T05:34:35.360Z,2276.00
2023-04-24T05:35:35.374Z,2612.00
2023-04-24T05:36:35.519Z,2144.00
2023-04-24T05:37:35.352Z,2068.00
2023-04-24T05:38:35.290Z,2300.00
2023-04-24T05:39:35.297Z,2812.00
2023-04-24T05:40:35.289Z,2472.00
2023-04-24T05:41:35.315Z,2216.00
2023-04-24T05:42:35.294Z,1952.00
2023-04-24T05:43:35.273Z,2040.00
2023-04-24T05:44:35.235Z,2000.00
2023-04-24T05:45:35.301Z,2060.00
2023-04-24T05:46:35.277Z,2140.00
2023-04-24T05:47:35.246Z,1564.00
2023-04-24T05:48:35.206Z,1276.00
2023-04-24T05:49:35.209Z,948.00
2023-04-24T05:50:36.951Z,736.00
2023-04-24T05:51:35.285Z,640.00
2023-04-24T05:52:35.126Z,708.00
2023-04-24T05:53:35.154Z,816.00
2023-04-24T05:54:35.122Z,940.00
2023-04-24T05:55:35.123Z,904.00
2023-04-24T05:56:35.159Z,964.00
2023-04-24T05:57:35.557Z,1144.00
2023-04-24T05:58:35.453Z,1040.00
2023-04-24T05:59:35.126Z,964.00
2023-04-24T06:00:35.040Z,1192.00
2023-04-24T06:01:35.165Z,1608.00
2023-04-24T06:02:35.152Z,1912.00
2023-04-24T06:03:35.232Z,1692.00
2023-04-24T06:04:35.521Z,1732.00
2023-04-24T06:05:35.035Z,1820.00
2023-04-24T06:06:34.980Z,2028.00
2023-04-24T06:07:34.967Z,1680.00
2023-04-24T06:08:35.083Z,1300.00
2023-04-24T06:09:34.983Z,1348.00
2023-04-24T06:10:35.045Z,1472.00
2023-04-24T06:11:34.940Z,1344.00
2023-04-24T06:12:34.956Z,1484.00
2023-04-24T06:13:34.906Z,1656.00
2023-04-24T06:14:34.899Z,1604.00
2023-04-24T06:15:34.933Z,1604.00
2023-04-24T06:16:34.885Z,1496.00
2023-04-24T06:17:34.927Z,1616.00
2023-04-24T06:18:34.947Z,2064.00
2023-04-24T06:19:34.864Z,2380.00
2023-04-24T06:20:34.872Z,2252.00
2023-04-24T06:21:34.898Z,2064.00
2023-04-24T06:22:34.832Z,1912.00
2023-04-24T06:23:34.817Z,2040.00
2023-04-24T06:24:34.766Z,1860.00
2023-04-24T06:25:34.800Z,1436.00
2023-04-24T06:26:34.764Z,1532.00
2023-04-24T06:27:34.775Z,1876.00
2023-04-24T06:28:34.808Z,2252.00
2023-04-24T06:29:34.758Z,2948.00
2023-04-24T06:30:34.713Z,2824.00
2023-04-24T06:31:34.801Z,2808.00
2023-04-24T06:32:34.773Z,2420.00
2023-04-24T06:33:34.756Z,2480.00
2023-04-24T06:34:34.695Z,2652.00
2023-04-24T06:35:34.658Z,2280.00
2023-04-24T06:36:34.647Z,1724.00
2023-04-24T06:37:34.767Z,1556.00
2023-04-24T06:38:34.696Z,1648.00
2023-04-24T06:39:34.641Z,1844.00
2023-04-24T06:40:34.581Z,2088.00
2023-04-24T06:41:34.595Z,2364.00
2023-04-24T06:42:34.557Z,2408.00
2023-04-24T06:43:34.701Z,2844.00
2023-04-24T06:44:34.530Z,2932.00
2023-04-24T06:45:34.677Z,2804.00
2023-04-24T06:46:34.580Z,3492.00
2023-04-24T06:47:34.538Z,3480.00
2023-04-24T06:48:34.785Z,3340.00
2023-04-24T06:49:34.539Z,3360.00
2023-04-24T06:50:34.521Z,3852.00
2023-04-24T06:51:34.715Z,3236.00
2023-04-24T06:52:35.459Z,2584.00
2023-04-24T06:53:34.471Z,2740.00
2023-04-24T06:54:34.441Z,3228.00
2023-04-24T06:55:34.456Z,3256.00
2023-04-24T06:56:34.494Z,4616.00
2023-04-24T06:57:34.439Z,5176.00
2023-04-24T06:58:35.147Z,4240.00
2023-04-24T06:59:34.654Z,4056.00
2023-04-24T07:00:34.400Z,4632.00
2023-04-24T07:01:34.438Z,4456.00
2023-04-24T07:02:34.455Z,3196.00
2023-04-24T07:03:34.442Z,2908.00
2023-04-24T07:04:34.631Z,2292.00
2023-04-24T07:05:34.317Z,1900.00
2023-04-24T07:06:34.427Z,1800.00
2023-04-24T07:07:34.293Z,2136.00
2023-04-24T07:08:34.421Z,2988.00
2023-04-24T07:09:34.254Z,4248.00
2023-04-24T07:10:34.265Z,4524.00
2023-04-24T07:11:34.235Z,3824.00
2023-04-24T07:12:34.327Z,3580.00
2023-04-24T07:13:34.249Z,3440.00
2023-04-24T07:14:34.245Z,3724.00
2023-04-24T07:15:34.403Z,3724.00
2023-04-24T07:16:34.276Z,4124.00
2023-04-24T07:17:34.222Z,4784.00
2023-04-24T07:18:34.193Z,4172.00
2023-04-24T07:19:34.142Z,3732.00
2023-04-24T07:20:34.205Z,3592.00
2023-04-24T07:21:34.138Z,3120.00
2023-04-24T07:22:34.183Z,4016.00
2023-04-24T07:23:34.088Z,4780.00
2023-04-24T07:24:34.126Z,5088.00
2023-04-24T07:25:34.121Z,5364.00
2023-04-24T07:26:34.293Z,5412.00
2023-04-24T07:27:34.084Z,4980.00
2023-04-24T07:28:34.070Z,4284.00
2023-04-24T07:29:34.022Z,3956.00
2023-04-24T07:30:34.044Z,3972.00
2023-04-24T07:31:34.123Z,3588.00
2023-04-24T07:32:34.012Z,2816.00
2023-04-24T07:33:34.869Z,2836.00
2023-04-24T07:34:33.995Z,2536.00
2023-04-24T07:35:34.050Z,2288.00
2023-04-24T07:36:34.004Z,2668.00
2023-04-24T07:37:34.386Z,2924.00
2023-04-24T07:38:33.949Z,3644.00
2023-04-24T07:39:34.796Z,4540.00
2023-04-24T07:40:34.773Z,4920.00
2023-04-24T07:41:33.968Z,4844.00
2023-04-24T07:42:33.930Z,2956.00
2023-04-24T07:43:34.223Z,2792.00
2023-04-24T07:44:34.886Z,3204.00
2023-04-24T07:45:34.230Z,2740.00
2023-04-24T07:46:33.936Z,2532.00
2023-04-24T07:47:33.839Z,2960.00
2023-04-24T07:48:33.845Z,2568.00
2023-04-24T07:49:33.830Z,2316.00
2023-04-24T07:50:33.797Z,3000.00
2023-04-24T07:51:33.796Z,2280.00
2023-04-24T07:52:33.792Z,2412.00
2023-04-24T07:53:33.781Z,2616.00
2023-04-24T07:54:33.773Z,2964.00
2023-04-24T07:55:33.765Z,3280.00
2023-04-24T07:56:33.741Z,3468.00
2023-04-24T07:57:33.734Z,3124.00
2023-04-24T07:58:33.766Z,3836.00
2023-04-24T07:59:33.742Z,3676.00
2023-04-24T08:00:33.774Z,4196.00
2023-04-24T08:01:33.699Z,2532.00
2023-04-24T08:02:33.843Z,3268.00
2023-04-24T08:03:33.945Z,2344.00
2023-04-24T08:04:34.245Z,3884.00
2023-04-24T08:05:33.719Z,3872.00
2023-04-24T08:06:33.831Z,3792.00
2023-04-24T08:07:33.603Z,3632.00
2023-04-24T08:08:33.624Z,4080.00
2023-04-24T08:09:33.638Z,4084.00
2023-04-24T08:10:33.611Z,3616.00
2023-04-24T08:11:33.549Z,3144.00
2023-04-24T08:12:33.648Z,3036.00
2023-04-24T08:13:33.519Z,2592.00
2023-04-24T08:14:33.688Z,2588.00
2023-04-24T08:15:33.565Z,2332.00
2023-04-24T08:16:33.595Z,2736.00
2023-04-24T08:17:33.476Z,3052.00
2023-04-24T08:18:33.549Z,3052.00
2023-04-24T08:19:33.458Z,2232.00
2023-04-24T08:20:34.243Z,2772.00
2023-04-24T08:21:40.460Z,2868.00
2023-04-24T08:22:33.437Z,2540.00
2023-04-24T08:23:33.425Z,2416.00
2023-04-24T08:24:33.416Z,2036.00
2023-04-24T08:25:33.404Z,2040.00
2023-04-24T08:26:34.121Z,2524.00
2023-04-24T08:27:33.378Z,2372.00
2023-04-24T08:28:33.380Z,2548.00
2023-04-24T08:29:33.354Z,2204.00
2023-04-24T08:30:33.372Z,1956.00
2023-04-24T08:31:33.392Z,1920.00
2023-04-24T08:32:33.357Z,1652.00
2023-04-24T08:33:33.287Z,1664.00
2023-04-24T08:34:33.312Z,1956.00
2023-04-24T08:35:33.277Z,2008.00
2023-04-24T08:36:45.839Z,2776.00
2023-04-24T08:37:34.229Z,3336.00
2023-04-24T08:38:33.252Z,2496.00
2023-04-24T08:39:33.215Z,2748.00
2023-04-24T08:40:33.955Z,4540.00
2023-04-24T08:41:33.967Z,3348.00
2023-04-24T08:42:33.231Z,2772.00
2023-04-24T08:43:33.187Z,2584.00
2023-04-24T08:44:33.183Z,3584.00
2023-04-24T08:45:33.168Z,3016.00
2023-04-24T08:46:33.210Z,3456.00
2023-04-24T08:47:33.166Z,3036.00
2023-04-24T08:48:34.072Z,3252.00
2023-04-24T08:49:33.102Z,3068.00
2023-04-24T08:50:33.122Z,2808.00
2023-04-24T08:51:33.086Z,2628.00
2023-04-24T08:52:33.087Z,2884.00
2023-04-24T08:53:33.060Z,3296.00
2023-04-24T08:54:33.078Z,2352.00
2023-04-24T08:55:33.041Z,2300.00
2023-04-24T08:56:33.048Z,2456.00
2023-04-24T08:57:33.013Z,1832.00
2023-04-24T08:58:33.050Z,2224.00
2023-04-24T08:59:32.997Z,2288.00
2023-04-24T09:00:33.109Z,2140.00
2023-04-24T09:01:33.153Z,2248.00
2023-04-24T09:02:33.070Z,2328.00
2023-04-24T09:03:33.070Z,3256.00
2023-04-24T09:04:33.267Z,1964.00
2023-04-24T09:05:32.914Z,3344.00
2023-04-24T09:06:33.028Z,3032.00
2023-04-24T09:07:32.905Z,3492.00
2023-04-24T09:08:32.931Z,2908.00
2023-04-24T09:09:32.865Z,2080.00
2023-04-24T09:10:33.080Z,2844.00
2023-04-24T09:11:32.959Z,2736.00
2023-04-24T09:12:33.080Z,3112.00
2023-04-24T09:13:32.824Z,2864.00
2023-04-24T09:14:33.120Z,3312.00
2023-04-24T09:15:32.999Z,2980.00
2023-04-24T09:16:34.426Z,2912.00
2023-04-24T09:17:32.854Z,3008.00
2023-04-24T09:18:32.812Z,2452.00
2023-04-24T09:19:32.770Z,2548.00
2023-04-24T09:20:32.843Z,2456.00
2023-04-24T09:21:33.736Z,2520.00
2023-04-24T09:22:32.765Z,3340.00
2023-04-24T09:23:32.922Z,3588.00
2023-04-24T09:24:32.724Z,4104.00
2023-04-24T09:25:32.746Z,3616.00
2023-04-24T09:26:33.178Z,3636.00
2023-04-24T09:27:32.825Z,4004.00
2023-04-24T09:28:32.807Z,4768.00
2023-04-24T09:29:32.702Z,3252.00
2023-04-24T09:30:32.815Z,3112.00
2023-04-24T09:31:32.694Z,3764.00
2023-04-24T09:32:32.702Z,4180.00
2023-04-24T09:33:32.732Z,3236.00
2023-04-24T09:34:32.647Z,3204.00
2023-04-24T09:35:32.621Z,3256.00
2023-04-24T09:36:32.653Z,3264.00
2023-04-24T09:37:32.557Z,3664.00
2023-04-24T09:38:32.760Z,2740.00
2023-04-24T09:39:32.531Z,2540.00
2023-04-24T09:40:32.560Z,2880.00
2023-04-24T09:41:32.532Z,3236.00
2023-04-24T09:42:33.390Z,3792.00
2023-04-24T09:43:32.551Z,4104.00
2023-04-24T09:44:32.527Z,4184.00
2023-04-24T09:45:33.090Z,3684.00
2023-04-24T09:46:32.570Z,3604.00
2023-04-24T09:47:32.758Z,2708.00
2023-04-24T09:48:32.562Z,2980.00
2023-04-24T09:49:32.491Z,3372.00
2023-04-24T09:50:32.543Z,4556.00
2023-04-24T09:51:32.795Z,3976.00
2023-04-24T09:52:32.522Z,3360.00
2023-04-24T09:53:32.431Z,4012.00
2023-04-24T09:54:32.512Z,3464.00
2023-04-24T09:55:32.348Z,3560.00
2023-04-24T09:56:32.390Z,3680.00
2023-04-24T09:57:32.341Z,4244.00
2023-04-24T09:58:32.340Z,3804.00
2023-04-24T09:59:32.378Z,3760.00
2023-04-24T10:00:32.385Z,3784.00
2023-04-24T10:01:32.347Z,4952.00
2023-04-24T10:02:33.244Z,4688.00
2023-04-24T10:03:32.381Z,5616.00
2023-04-24T10:04:32.499Z,5344.00
2023-04-24T10:05:32.322Z,4612.00
2023-04-24T10:06:32.239Z,6400.00
2023-04-24T10:07:32.224Z,5728.00
2023-04-24T10:08:32.288Z,5800.00
2023-04-24T10:09:32.227Z,4692.00
2023-04-24T10:10:33.136Z,3996.00
2023-04-24T10:11:32.253Z,4180.00
2023-04-24T10:12:32.213Z,6184.00
2023-04-24T10:13:32.296Z,6164.00
2023-04-24T10:14:32.226Z,6580.00
2023-04-24T10:15:32.140Z,6368.00
2023-04-24T10:16:32.156Z,7608.00
2023-04-24T10:17:32.074Z,5140.00
2023-04-24T10:18:32.103Z,5092.00
2023-04-24T10:19:32.065Z,6416.00
2023-04-24T10:20:32.108Z,4932.00
2023-04-24T10:21:32.054Z,4668.00
2023-04-24T10:22:32.437Z,4476.00
2023-04-24T10:23:32.969Z,5844.00
2023-04-24T10:24:32.042Z,6468.00
2023-04-24T10:25:32.043Z,6844.00
2023-04-24T10:26:32.025Z,6548.00
2023-04-24T10:27:32.052Z,6384.00
2023-04-24T10:28:32.680Z,5856.00
2023-04-24T10:29:31.950Z,7584.00
2023-04-24T10:30:31.967Z,5252.00
2023-04-24T10:31:32.057Z,6112.00
2023-04-24T10:32:31.993Z,5956.00
2023-04-24T10:33:31.908Z,7104.00
2023-04-24T10:34:31.914Z,5844.00
2023-04-24T10:35:31.885Z,5680.00
2023-04-24T10:36:31.895Z,6052.00
2023-04-24T10:37:31.854Z,4392.00
2023-04-24T10:38:31.887Z,3880.00
2023-04-24T10:39:31.850Z,4052.00
2023-04-24T10:40:32.142Z,5788.00
2023-04-24T10:41:32.365Z,5528.00
2023-04-24T10:42:31.911Z,4300.00
2023-04-24T10:43:31.811Z,3756.00
2023-04-24T10:44:32.556Z,4036.00
2023-04-24T10:45:31.779Z,4184.00
2023-04-24T10:46:31.810Z,4488.00
2023-04-24T10:47:31.760Z,4080.00
2023-04-24T10:48:31.758Z,5680.00
2023-04-24T10:49:31.779Z,5696.00
2023-04-24T10:50:31.875Z,5504.00
2023-04-24T10:51:31.742Z,6204.00
2023-04-24T10:52:32.224Z,5908.00
2023-04-24T10:53:31.815Z,5176.00
2023-04-24T10:54:31.795Z,5496.00
2023-04-24T10:55:31.921Z,4216.00
2023-04-24T10:56:31.800Z,5708.00
2023-04-24T10:57:31.984Z,6516.00
2023-04-24T10:58:31.735Z,5532.00
2023-04-24T10:59:31.663Z,5700.00
2023-04-24T11:00:32.693Z,4852.00
2023-04-24T11:01:31.844Z,5344.00
2023-04-24T11:02:32.369Z,6564.00
2023-04-24T11:03:32.516Z,8560.00
2023-04-24T11:04:31.749Z,6720.00
2023-04-24T11:05:31.635Z,4700.00
2023-04-24T11:06:31.566Z,6836.00
2023-04-24T11:07:31.547Z,4592.00
2023-04-24T11:08:31.615Z,4200.00
2023-04-24T11:09:31.551Z,4528.00
2023-04-24T11:10:31.522Z,4740.00
2023-04-24T11:11:31.560Z,5944.00
2023-04-24T11:12:31.483Z,6372.00
2023-04-24T11:13:31.437Z,6092.00
2023-04-24T11:14:31.466Z,7616.00
2023-04-24T11:15:31.467Z,5164.00
2023-04-24T11:16:31.473Z,5796.00
2023-04-24T11:17:31.442Z,5508.00
2023-04-24T11:18:31.439Z,4624.00
2023-04-24T11:19:31.403Z,3936.00
2023-04-24T11:20:31.401Z,6244.00
2023-04-24T11:21:31.413Z,6564.00
2023-04-24T11:22:31.384Z,6028.00
2023-04-24T11:23:31.382Z,6884.00
2023-04-24T11:24:31.444Z,7124.00
2023-04-24T11:25:31.529Z,7208.00
2023-04-24T11:26:31.332Z,7008.00
2023-04-24T11:27:31.326Z,6680.00
2023-04-24T11:28:31.297Z,5288.00
2023-04-24T11:29:31.314Z,5396.00
2023-04-24T11:30:31.260Z,5780.00
2023-04-24T11:31:31.432Z,8152.00
2023-04-24T11:32:31.274Z,7244.00
2023-04-24T11:33:31.570Z,6488.00
2023-04-24T11:34:31.669Z,6028.00
2023-04-24T11:35:31.301Z,5596.00
2023-04-24T11:36:31.267Z,4640.00
2023-04-24T11:37:31.261Z,3712.00
2023-04-24T11:38:31.418Z,5736.00
2023-04-24T11:39:31.212Z,3580.00
2023-04-24T11:40:31.392Z,4620.00
2023-04-24T11:41:31.155Z,4012.00
2023-04-24T11:42:31.225Z,4724.00
2023-04-24T11:43:33.482Z,5340.00
2023-04-24T11:44:31.137Z,4356.00
2023-04-24T11:45:31.334Z,4672.00
2023-04-24T11:46:31.101Z,5248.00
2023-04-24T11:47:31.170Z,4380.00
2023-04-24T11:48:31.067Z,6388.00
2023-04-24T11:49:31.679Z,6640.00
2023-04-24T11:50:31.057Z,6464.00
2023-04-24T11:51:36.877Z,4740.00
2023-04-24T11:52:31.999Z,3008.00
2023-04-24T11:53:31.016Z,2688.00
2023-04-24T11:54:30.986Z,2972.00
2023-04-24T11:55:31.023Z,4328.00
2023-04-24T11:56:31.031Z,5068.00
2023-04-24T11:57:30.992Z,4412.00
2023-04-24T11:58:30.941Z,2988.00
2023-04-24T11:59:31.043Z,3208.00
2023-04-24T12:00:30.917Z,3780.00
2023-04-24T12:01:30.921Z,3800.00
2023-04-24T12:02:31.071Z,3360.00
2023-04-24T12:03:31.087Z,4204.00
2023-04-24T12:04:32.575Z,4556.00
2023-04-24T12:05:31.016Z,3040.00
2023-04-24T12:06:31.061Z,2688.00
2023-04-24T12:07:30.864Z,3428.00
2023-04-24T12:08:30.815Z,5016.00
2023-04-24T12:09:30.842Z,6588.00
2023-04-24T12:10:30.799Z,6636.00
2023-04-24T12:11:30.807Z,6696.00
2023-04-24T12:12:30.807Z,7144.00
2023-04-24T12:13:30.810Z,6880.00
2023-04-24T12:14:30.763Z,5888.00
2023-04-24T12:15:30.810Z,5020.00
2023-04-24T12:16:30.823Z,5812.00
2023-04-24T12:17:30.792Z,7116.00
2023-04-24T12:18:30.850Z,6252.00
2023-04-24T12:19:30.742Z,6460.00
2023-04-24T12:20:30.671Z,6256.00
2023-04-24T12:21:30.691Z,5768.00
2023-04-24T12:22:30.652Z,6324.00
2023-04-24T12:23:30.683Z,6360.00
2023-04-24T12:24:30.634Z,8256.00
2023-04-24T12:25:30.663Z,8020.00
2023-04-24T12:26:30.604Z,8740.00
2023-04-24T12:27:30.609Z,8520.00
2023-04-24T12:28:30.600Z,8636.00
2023-04-24T12:29:30.663Z,8284.00
2023-04-24T12:30:30.577Z,7184.00